sensor_id;sensor_type;location;lat;lon;timestamp;temperature;humidity
16301;DHT22;8258;51.020;4.248;2022-07-05T00:01:04;14.20;99.90
16301;DHT22;8258;51.020;4.248;2022-07-05T00:03:31;14.10;99.90
16301;DHT22;8258;51.020;4.248;2022-07-05T00:05:59;14.10;99.90
16301;DHT22;8258;51.020;4.248;2022-07-05T00:08:26;14.10;99.90
16301;DHT22;8258;51.020;4.248;2022-07-05T00:10:53;14.00;99.90
16301;DHT22;8258;51.020;4.248;2022-07-05T00:13:20;14.00;99.90
16301;DHT22;8258;51.020;4.248;2022-07-05T00:15:47;13.90;99.90
16301;DHT22;8258;51.020;4.248;2022-07-05T00:18:14;13.90;99.90
16301;DHT22;8258;51.020;4.248;2022-07-05T00:20:41;13.90;99.90
16301;DHT22;8258;51.020;4.248;2022-07-05T00:23:09;13.80;99.90
16301;DHT22;8258;51.020;4.248;2022-07-05T00:25:36;13.80;99.90
16301;DHT22;8258;51.020;4.248;2022-07-05T00:28:03;13.80;99.90
16301;DHT22;8258;51.020;4.248;2022-07-05T00:30:30;13.90;99.90
16301;DHT22;8258;51.020;4.248;2022-07-05T00:32:57;13.80;99.90
16301;DHT22;8258;51.020;4.248;2022-07-05T00:35:23;13.80;99.90
16301;DHT22;8258;51.020;4.248;2022-07-05T00:37:50;13.80;99.90
16301;DHT22;8258;51.020;4.248;2022-07-05T00:40:18;13.80;99.90
16301;DHT22;8258;51.020;4.248;2022-07-05T00:42:45;13.80;99.90
16301;DHT22;8258;51.020;4.248;2022-07-05T00:45:12;13.70;99.90
16301;DHT22;8258;51.020;4.248;2022-07-05T00:47:39;13.60;99.90
16301;DHT22;8258;51.020;4.248;2022-07-05T00:50:07;13.40;99.90
16301;DHT22;8258;51.020;4.248;2022-07-05T00:52:34;13.40;99.90
16301;DHT22;8258;51.020;4.248;2022-07-05T00:55:01;13.40;99.90
16301;DHT22;8258;51.020;4.248;2022-07-05T00:57:31;13.40;99.90
16301;DHT22;8258;51.020;4.248;2022-07-05T00:59:59;13.40;99.90
16301;DHT22;8258;51.020;4.248;2022-07-05T01:02:26;13.40;99.90
16301;DHT22;8258;51.020;4.248;2022-07-05T01:04:53;13.20;99.90
16301;DHT22;8258;51.020;4.248;2022-07-05T01:07:22;13.30;99.90
16301;DHT22;8258;51.020;4.248;2022-07-05T01:09:49;13.30;99.90
16301;DHT22;8258;51.020;4.248;2022-07-05T01:12:17;13.40;99.90
16301;DHT22;8258;51.020;4.248;2022-07-05T01:14:45;13.30;99.90
16301;DHT22;8258;51.020;4.248;2022-07-05T01:17:12;13.30;99.90
16301;DHT22;8258;51.020;4.248;2022-07-05T01:19:39;13.30;99.90
16301;DHT22;8258;51.020;4.248;2022-07-05T01:22:12;13.30;99.90
16301;DHT22;8258;51.020;4.248;2022-07-05T01:24:44;13.30;99.90
16301;DHT22;8258;51.020;4.248;2022-07-05T01:27:11;13.30;99.90
16301;DHT22;8258;51.020;4.248;2022-07-05T01:29:38;13.20;99.90
16301;DHT22;8258;51.020;4.248;2022-07-05T01:32:06;13.10;99.90
16301;DHT22;8258;51.020;4.248;2022-07-05T01:34:36;13.10;99.90
16301;DHT22;8258;51.020;4.248;2022-07-05T01:37:04;13.20;99.90
16301;DHT22;8258;51.020;4.248;2022-07-05T01:39:32;13.30;99.90
16301;DHT22;8258;51.020;4.248;2022-07-05T01:42:00;13.10;99.90
16301;DHT22;8258;51.020;4.248;2022-07-05T01:44:28;13.10;99.90
16301;DHT22;8258;51.020;4.248;2022-07-05T01:47:00;13.20;99.90
16301;DHT22;8258;51.020;4.248;2022-07-05T01:49:32;13.30;99.90
16301;DHT22;8258;51.020;4.248;2022-07-05T01:52:07;13.10;99.90
16301;DHT22;8258;51.020;4.248;2022-07-05T01:54:35;13.00;99.90
16301;DHT22;8258;51.020;4.248;2022-07-05T01:57:04;13.00;99.90
16301;DHT22;8258;51.020;4.248;2022-07-05T01:59:32;12.90;99.90
16301;DHT22;8258;51.020;4.248;2022-07-05T02:01:59;13.00;99.90
16301;DHT22;8258;51.020;4.248;2022-07-05T02:04:28;13.00;99.90
16301;DHT22;8258;51.020;4.248;2022-07-05T02:06:55;13.00;99.90
16301;DHT22;8258;51.020;4.248;2022-07-05T02:09:22;13.00;99.90
16301;DHT22;8258;51.020;4.248;2022-07-05T02:11:49;13.10;99.90
16301;DHT22;8258;51.020;4.248;2022-07-05T02:14:17;13.10;99.90
16301;DHT22;8258;51.020;4.248;2022-07-05T02:16:44;13.10;99.90
16301;DHT22;8258;51.020;4.248;2022-07-05T02:19:11;13.10;99.90
16301;DHT22;8258;51.020;4.248;2022-07-05T02:21:39;13.10;99.90
16301;DHT22;8258;51.020;4.248;2022-07-05T02:24:06;13.10;99.90
16301;DHT22;8258;51.020;4.248;2022-07-05T02:26:34;13.10;99.90
16301;DHT22;8258;51.020;4.248;2022-07-05T02:29:02;13.10;99.90
16301;DHT22;8258;51.020;4.248;2022-07-05T02:31:30;13.00;99.90
16301;DHT22;8258;51.020;4.248;2022-07-05T02:33:58;12.90;99.90
16301;DHT22;8258;51.020;4.248;2022-07-05T02:36:25;12.80;99.90
16301;DHT22;8258;51.020;4.248;2022-07-05T02:38:52;12.90;99.90
16301;DHT22;8258;51.020;4.248;2022-07-05T02:41:19;12.90;99.90
16301;DHT22;8258;51.020;4.248;2022-07-05T02:43:46;12.80;99.90
16301;DHT22;8258;51.020;4.248;2022-07-05T02:46:13;12.80;99.90
16301;DHT22;8258;51.020;4.248;2022-07-05T02:48:41;12.80;99.90
16301;DHT22;8258;51.020;4.248;2022-07-05T02:51:08;12.90;99.90
16301;DHT22;8258;51.020;4.248;2022-07-05T02:53:35;12.80;99.90
16301;DHT22;8258;51.020;4.248;2022-07-05T02:56:02;12.70;99.90
16301;DHT22;8258;51.020;4.248;2022-07-05T02:58:29;12.60;99.90
16301;DHT22;8258;51.020;4.248;2022-07-05T03:00:56;12.50;99.90
16301;DHT22;8258;51.020;4.248;2022-07-05T03:03:23;12.60;99.90
16301;DHT22;8258;51.020;4.248;2022-07-05T03:05:52;12.60;99.90
16301;DHT22;8258;51.020;4.248;2022-07-05T03:08:19;12.60;99.90
16301;DHT22;8258;51.020;4.248;2022-07-05T03:10:46;12.50;99.90
16301;DHT22;8258;51.020;4.248;2022-07-05T03:13:13;12.40;99.90
16301;DHT22;8258;51.020;4.248;2022-07-05T03:15:40;12.40;99.90
16301;DHT22;8258;51.020;4.248;2022-07-05T03:18:08;12.40;99.90
16301;DHT22;8258;51.020;4.248;2022-07-05T03:20:35;12.40;99.90
16301;DHT22;8258;51.020;4.248;2022-07-05T03:23:03;12.40;99.90
16301;DHT22;8258;51.020;4.248;2022-07-05T03:25:30;12.30;99.90
16301;DHT22;8258;51.020;4.248;2022-07-05T03:27:57;12.30;99.90
16301;DHT22;8258;51.020;4.248;2022-07-05T03:30:24;12.40;99.90
16301;DHT22;8258;51.020;4.248;2022-07-05T03:32:51;12.40;99.90
16301;DHT22;8258;51.020;4.248;2022-07-05T03:35:18;12.40;99.90
16301;DHT22;8258;51.020;4.248;2022-07-05T03:37:45;12.20;99.90
16301;DHT22;8258;51.020;4.248;2022-07-05T03:40:13;12.20;99.90
16301;DHT22;8258;51.020;4.248;2022-07-05T03:42:40;12.20;99.90
16301;DHT22;8258;51.020;4.248;2022-07-05T03:45:08;12.20;99.90
16301;DHT22;8258;51.020;4.248;2022-07-05T03:47:35;12.20;99.90
16301;DHT22;8258;51.020;4.248;2022-07-05T03:50:02;12.10;99.90
16301;DHT22;8258;51.020;4.248;2022-07-05T03:52:29;12.20;99.90
16301;DHT22;8258;51.020;4.248;2022-07-05T03:54:56;12.20;99.90
16301;DHT22;8258;51.020;4.248;2022-07-05T03:57:24;12.20;99.90
16301;DHT22;8258;51.020;4.248;2022-07-05T03:59:51;12.20;99.90
16301;DHT22;8258;51.020;4.248;2022-07-05T04:02:18;12.20;99.90
16301;DHT22;8258;51.020;4.248;2022-07-05T04:04:45;12.20;99.90
16301;DHT22;8258;51.020;4.248;2022-07-05T04:07:12;12.30;99.90
16301;DHT22;8258;51.020;4.248;2022-07-05T04:09:39;12.30;99.90
16301;DHT22;8258;51.020;4.248;2022-07-05T04:12:06;12.40;99.90
16301;DHT22;8258;51.020;4.248;2022-07-05T04:14:34;12.40;99.90
16301;DHT22;8258;51.020;4.248;2022-07-05T04:17:01;12.40;99.90
16301;DHT22;8258;51.020;4.248;2022-07-05T04:19:28;12.40;99.90
16301;DHT22;8258;51.020;4.248;2022-07-05T04:21:55;12.50;99.90
16301;DHT22;8258;51.020;4.248;2022-07-05T04:24:22;12.60;99.90
16301;DHT22;8258;51.020;4.248;2022-07-05T04:26:49;12.60;99.90
16301;DHT22;8258;51.020;4.248;2022-07-05T04:29:16;12.60;99.90
16301;DHT22;8258;51.020;4.248;2022-07-05T04:31:45;12.70;99.90
16301;DHT22;8258;51.020;4.248;2022-07-05T04:34:12;12.70;99.90
16301;DHT22;8258;51.020;4.248;2022-07-05T04:36:39;12.80;99.90
16301;DHT22;8258;51.020;4.248;2022-07-05T04:39:07;12.90;99.90
16301;DHT22;8258;51.020;4.248;2022-07-05T04:41:34;12.90;99.90
16301;DHT22;8258;51.020;4.248;2022-07-05T04:44:01;13.00;99.90
16301;DHT22;8258;51.020;4.248;2022-07-05T04:46:28;13.10;99.90
16301;DHT22;8258;51.020;4.248;2022-07-05T04:48:56;13.20;99.90
16301;DHT22;8258;51.020;4.248;2022-07-05T04:51:23;13.30;99.90
16301;DHT22;8258;51.020;4.248;2022-07-05T04:53:50;13.30;99.90
16301;DHT22;8258;51.020;4.248;2022-07-05T04:56:17;13.40;99.90
16301;DHT22;8258;51.020;4.248;2022-07-05T04:58:44;13.50;99.90
16301;DHT22;8258;51.020;4.248;2022-07-05T05:01:11;13.60;99.90
16301;DHT22;8258;51.020;4.248;2022-07-05T05:03:38;13.80;99.90
16301;DHT22;8258;51.020;4.248;2022-07-05T05:06:06;13.90;99.90
16301;DHT22;8258;51.020;4.248;2022-07-05T05:08:33;14.00;99.90
16301;DHT22;8258;51.020;4.248;2022-07-05T05:11:00;14.20;99.90
16301;DHT22;8258;51.020;4.248;2022-07-05T05:13:27;14.30;99.90
16301;DHT22;8258;51.020;4.248;2022-07-05T05:15:54;14.50;99.90
16301;DHT22;8258;51.020;4.248;2022-07-05T05:18:21;14.50;99.90
16301;DHT22;8258;51.020;4.248;2022-07-05T05:20:52;14.50;99.90
16301;DHT22;8258;51.020;4.248;2022-07-05T05:23:21;14.40;99.90
16301;DHT22;8258;51.020;4.248;2022-07-05T05:25:48;14.40;99.90
16301;DHT22;8258;51.020;4.248;2022-07-05T05:28:15;14.40;99.90
16301;DHT22;8258;51.020;4.248;2022-07-05T05:30:42;14.50;99.90
16301;DHT22;8258;51.020;4.248;2022-07-05T05:33:09;14.50;99.90
16301;DHT22;8258;51.020;4.248;2022-07-05T05:35:36;14.60;99.90
16301;DHT22;8258;51.020;4.248;2022-07-05T05:38:06;14.60;99.90
16301;DHT22;8258;51.020;4.248;2022-07-05T05:40:34;14.80;99.90
16301;DHT22;8258;51.020;4.248;2022-07-05T05:43:03;14.80;99.90
16301;DHT22;8258;51.020;4.248;2022-07-05T05:45:30;14.90;99.90
16301;DHT22;8258;51.020;4.248;2022-07-05T05:47:58;15.00;99.90
16301;DHT22;8258;51.020;4.248;2022-07-05T05:50:27;15.10;99.90
16301;DHT22;8258;51.020;4.248;2022-07-05T05:52:54;15.20;99.90
16301;DHT22;8258;51.020;4.248;2022-07-05T05:55:23;15.20;99.90
16301;DHT22;8258;51.020;4.248;2022-07-05T05:57:54;15.40;99.90
16301;DHT22;8258;51.020;4.248;2022-07-05T06:00:26;15.40;99.90
16301;DHT22;8258;51.020;4.248;2022-07-05T06:02:55;15.60;99.90
16301;DHT22;8258;51.020;4.248;2022-07-05T06:05:25;15.50;99.90
16301;DHT22;8258;51.020;4.248;2022-07-05T06:07:53;15.70;99.90
16301;DHT22;8258;51.020;4.248;2022-07-05T06:10:22;15.80;99.90
16301;DHT22;8258;51.020;4.248;2022-07-05T06:12:50;15.90;99.90
16301;DHT22;8258;51.020;4.248;2022-07-05T06:15:19;16.10;99.90
16301;DHT22;8258;51.020;4.248;2022-07-05T06:17:47;16.30;99.90
16301;DHT22;8258;51.020;4.248;2022-07-05T06:20:16;16.40;99.90
16301;DHT22;8258;51.020;4.248;2022-07-05T06:22:43;16.40;99.90
16301;DHT22;8258;51.020;4.248;2022-07-05T06:25:10;16.60;99.90
16301;DHT22;8258;51.020;4.248;2022-07-05T06:27:39;16.70;99.90
16301;DHT22;8258;51.020;4.248;2022-07-05T06:30:07;16.90;99.90
16301;DHT22;8258;51.020;4.248;2022-07-05T06:32:36;17.10;99.90
16301;DHT22;8258;51.020;4.248;2022-07-05T06:35:03;17.20;99.90
16301;DHT22;8258;51.020;4.248;2022-07-05T06:37:40;17.40;99.90
16301;DHT22;8258;51.020;4.248;2022-07-05T06:40:09;17.50;99.90
16301;DHT22;8258;51.020;4.248;2022-07-05T06:42:36;17.70;99.90
16301;DHT22;8258;51.020;4.248;2022-07-05T06:45:03;17.80;99.90
16301;DHT22;8258;51.020;4.248;2022-07-05T06:47:30;17.90;99.90
16301;DHT22;8258;51.020;4.248;2022-07-05T06:49:59;18.10;99.90
16301;DHT22;8258;51.020;4.248;2022-07-05T06:52:28;18.10;99.90
16301;DHT22;8258;51.020;4.248;2022-07-05T06:54:55;18.00;99.90
16301;DHT22;8258;51.020;4.248;2022-07-05T06:57:23;18.10;99.90
16301;DHT22;8258;51.020;4.248;2022-07-05T06:59:50;18.00;99.90
16301;DHT22;8258;51.020;4.248;2022-07-05T07:02:18;18.00;99.90
16301;DHT22;8258;51.020;4.248;2022-07-05T07:04:45;18.00;99.90
16301;DHT22;8258;51.020;4.248;2022-07-05T07:07:14;18.10;99.90
16301;DHT22;8258;51.020;4.248;2022-07-05T07:09:59;18.20;99.90
16301;DHT22;8258;51.020;4.248;2022-07-05T07:12:27;18.50;99.90
16301;DHT22;8258;51.020;4.248;2022-07-05T07:14:55;18.90;99.90
16301;DHT22;8258;51.020;4.248;2022-07-05T07:17:22;19.00;99.90
16301;DHT22;8258;51.020;4.248;2022-07-05T07:19:49;19.20;99.90
16301;DHT22;8258;51.020;4.248;2022-07-05T07:22:17;19.30;99.90
16301;DHT22;8258;51.020;4.248;2022-07-05T07:24:44;19.60;99.90
16301;DHT22;8258;51.020;4.248;2022-07-05T07:27:11;19.70;99.90
16301;DHT22;8258;51.020;4.248;2022-07-05T07:29:39;20.40;99.90
16301;DHT22;8258;51.020;4.248;2022-07-05T07:32:07;21.20;99.90
16301;DHT22;8258;51.020;4.248;2022-07-05T07:34:35;20.90;99.90
16301;DHT22;8258;51.020;4.248;2022-07-05T07:37:03;20.80;99.90
16301;DHT22;8258;51.020;4.248;2022-07-05T07:39:32;20.90;99.90
16301;DHT22;8258;51.020;4.248;2022-07-05T07:41:59;20.90;99.90
16301;DHT22;8258;51.020;4.248;2022-07-05T07:44:26;21.30;99.90
16301;DHT22;8258;51.020;4.248;2022-07-05T07:46:53;22.20;99.90
16301;DHT22;8258;51.020;4.248;2022-07-05T07:49:20;22.70;99.90
16301;DHT22;8258;51.020;4.248;2022-07-05T07:51:47;22.50;99.90
16301;DHT22;8258;51.020;4.248;2022-07-05T07:54:14;22.30;99.90
16301;DHT22;8258;51.020;4.248;2022-07-05T07:56:42;22.00;99.90
16301;DHT22;8258;51.020;4.248;2022-07-05T07:59:09;22.30;99.90
16301;DHT22;8258;51.020;4.248;2022-07-05T08:01:36;22.20;99.90
16301;DHT22;8258;51.020;4.248;2022-07-05T08:04:04;22.50;99.90
16301;DHT22;8258;51.020;4.248;2022-07-05T08:06:31;23.30;99.90
16301;DHT22;8258;51.020;4.248;2022-07-05T08:08:57;23.60;99.90
16301;DHT22;8258;51.020;4.248;2022-07-05T08:11:24;24.10;99.90
16301;DHT22;8258;51.020;4.248;2022-07-05T08:13:53;24.10;99.90
16301;DHT22;8258;51.020;4.248;2022-07-05T08:16:20;24.00;99.90
16301;DHT22;8258;51.020;4.248;2022-07-05T08:18:46;24.40;99.90
16301;DHT22;8258;51.020;4.248;2022-07-05T08:21:31;24.80;99.90
16301;DHT22;8258;51.020;4.248;2022-07-05T08:23:58;25.80;99.90
16301;DHT22;8258;51.020;4.248;2022-07-05T08:26:25;26.80;99.90
16301;DHT22;8258;51.020;4.248;2022-07-05T08:28:54;27.70;99.90
16301;DHT22;8258;51.020;4.248;2022-07-05T08:31:21;28.40;99.90
16301;DHT22;8258;51.020;4.248;2022-07-05T08:33:48;28.10;99.90
16301;DHT22;8258;51.020;4.248;2022-07-05T08:36:15;27.10;99.90
16301;DHT22;8258;51.020;4.248;2022-07-05T08:38:41;26.00;99.90
16301;DHT22;8258;51.020;4.248;2022-07-05T08:41:10;26.20;99.90
16301;DHT22;8258;51.020;4.248;2022-07-05T08:43:40;26.70;99.90
16301;DHT22;8258;51.020;4.248;2022-07-05T08:46:09;27.10;99.90
16301;DHT22;8258;51.020;4.248;2022-07-05T08:48:38;28.30;99.90
16301;DHT22;8258;51.020;4.248;2022-07-05T08:51:10;29.20;99.90
16301;DHT22;8258;51.020;4.248;2022-07-05T08:53:39;29.00;99.90
16301;DHT22;8258;51.020;4.248;2022-07-05T08:56:07;27.90;99.90
16301;DHT22;8258;51.020;4.248;2022-07-05T08:58:35;27.60;99.90
16301;DHT22;8258;51.020;4.248;2022-07-05T09:01:04;26.80;99.90
16301;DHT22;8258;51.020;4.248;2022-07-05T09:03:33;26.10;99.90
16301;DHT22;8258;51.020;4.248;2022-07-05T09:06:01;25.30;99.90
16301;DHT22;8258;51.020;4.248;2022-07-05T09:08:30;24.70;99.90
16301;DHT22;8258;51.020;4.248;2022-07-05T09:11:00;24.20;99.90
16301;DHT22;8258;51.020;4.248;2022-07-05T09:13:33;23.90;99.90
16301;DHT22;8258;51.020;4.248;2022-07-05T09:16:00;23.40;99.90
16301;DHT22;8258;51.020;4.248;2022-07-05T09:18:41;24.20;99.90
16301;DHT22;8258;51.020;4.248;2022-07-05T09:21:17;26.00;99.90
16301;DHT22;8258;51.020;4.248;2022-07-05T09:23:52;26.00;99.90
16301;DHT22;8258;51.020;4.248;2022-07-05T09:26:19;26.30;99.90
16301;DHT22;8258;51.020;4.248;2022-07-05T09:28:54;26.00;99.90
16301;DHT22;8258;51.020;4.248;2022-07-05T09:31:30;25.60;99.90
16301;DHT22;8258;51.020;4.248;2022-07-05T09:34:05;25.50;99.90
16301;DHT22;8258;51.020;4.248;2022-07-05T09:36:49;25.30;99.90
16301;DHT22;8258;51.020;4.248;2022-07-05T09:39:17;25.20;99.90
16301;DHT22;8258;51.020;4.248;2022-07-05T09:41:44;25.20;99.90
16301;DHT22;8258;51.020;4.248;2022-07-05T09:44:11;25.90;99.90
16301;DHT22;8258;51.020;4.248;2022-07-05T09:46:50;26.90;99.90
16301;DHT22;8258;51.020;4.248;2022-07-05T09:49:26;27.00;99.90
16301;DHT22;8258;51.020;4.248;2022-07-05T09:51:53;26.30;99.90
16301;DHT22;8258;51.020;4.248;2022-07-05T09:54:21;25.70;99.90
16301;DHT22;8258;51.020;4.248;2022-07-05T09:56:48;25.00;99.90
16301;DHT22;8258;51.020;4.248;2022-07-05T09:59:18;25.90;99.90
16301;DHT22;8258;51.020;4.248;2022-07-05T10:01:46;26.70;99.90
16301;DHT22;8258;51.020;4.248;2022-07-05T10:04:13;28.70;99.90
16301;DHT22;8258;51.020;4.248;2022-07-05T10:06:42;29.80;95.90
16301;DHT22;8258;51.020;4.248;2022-07-05T10:09:09;30.40;95.00
16301;DHT22;8258;51.020;4.248;2022-07-05T10:11:40;31.00;92.40
16301;DHT22;8258;51.020;4.248;2022-07-05T10:14:11;30.50;93.50
16301;DHT22;8258;51.020;4.248;2022-07-05T10:16:38;29.30;93.10
16301;DHT22;8258;51.020;4.248;2022-07-05T10:19:08;28.30;95.30
16301;DHT22;8258;51.020;4.248;2022-07-05T10:21:44;27.70;96.40
16301;DHT22;8258;51.020;4.248;2022-07-05T10:24:11;27.20;97.30
16301;DHT22;8258;51.020;4.248;2022-07-05T10:26:39;26.50;98.00
16301;DHT22;8258;51.020;4.248;2022-07-05T10:29:07;26.20;98.60
16301;DHT22;8258;51.020;4.248;2022-07-05T10:31:35;26.00;98.60
16301;DHT22;8258;51.020;4.248;2022-07-05T10:34:03;25.60;98.50
16301;DHT22;8258;51.020;4.248;2022-07-05T10:36:34;24.90;99.80
16301;DHT22;8258;51.020;4.248;2022-07-05T10:39:05;24.60;99.90
16301;DHT22;8258;51.020;4.248;2022-07-05T10:41:32;24.70;99.90
16301;DHT22;8258;51.020;4.248;2022-07-05T10:44:00;24.70;99.90
16301;DHT22;8258;51.020;4.248;2022-07-05T10:46:35;24.80;99.90
16301;DHT22;8258;51.020;4.248;2022-07-05T10:49:14;25.10;99.90
16301;DHT22;8258;51.020;4.248;2022-07-05T10:51:43;26.00;99.90
16301;DHT22;8258;51.020;4.248;2022-07-05T10:54:11;26.30;99.90
16301;DHT22;8258;51.020;4.248;2022-07-05T10:56:38;27.40;99.70
16301;DHT22;8258;51.020;4.248;2022-07-05T10:59:09;29.10;97.90
16301;DHT22;8258;51.020;4.248;2022-07-05T11:01:41;30.90;96.00
16301;DHT22;8258;51.020;4.248;2022-07-05T11:04:18;31.50;91.30
16301;DHT22;8258;51.020;4.248;2022-07-05T11:06:46;30.70;92.00
16301;DHT22;8258;51.020;4.248;2022-07-05T11:09:17;30.70;90.60
16301;DHT22;8258;51.020;4.248;2022-07-05T11:11:46;31.40;89.40
16301;DHT22;8258;51.020;4.248;2022-07-05T11:14:36;31.90;88.00
16301;DHT22;8258;51.020;4.248;2022-07-05T11:17:23;31.20;87.40
16301;DHT22;8258;51.020;4.248;2022-07-05T11:20:15;29.60;89.40
16301;DHT22;8258;51.020;4.248;2022-07-05T11:23:06;29.10;89.90
16301;DHT22;8258;51.020;4.248;2022-07-05T11:25:36;29.70;88.70
16301;DHT22;8258;51.020;4.248;2022-07-05T11:28:12;30.80;87.20
16301;DHT22;8258;51.020;4.248;2022-07-05T11:30:51;31.00;85.80
16301;DHT22;8258;51.020;4.248;2022-07-05T11:33:46;29.50;86.30
16301;DHT22;8258;51.020;4.248;2022-07-05T11:36:24;28.60;87.60
16301;DHT22;8258;51.020;4.248;2022-07-05T11:39:14;27.60;91.60
16301;DHT22;8258;51.020;4.248;2022-07-05T11:41:45;27.10;94.30
16301;DHT22;8258;51.020;4.248;2022-07-05T11:44:12;26.40;96.20
16301;DHT22;8258;51.020;4.248;2022-07-05T11:46:41;27.70;94.90
16301;DHT22;8258;51.020;4.248;2022-07-05T11:49:09;28.90;93.10
16301;DHT22;8258;51.020;4.248;2022-07-05T11:51:36;28.50;92.40
16301;DHT22;8258;51.020;4.248;2022-07-05T11:54:03;27.60;94.70
16301;DHT22;8258;51.020;4.248;2022-07-05T11:56:31;26.90;95.00
16301;DHT22;8258;51.020;4.248;2022-07-05T11:58:59;26.20;96.30
16301;DHT22;8258;51.020;4.248;2022-07-05T12:01:26;26.60;97.90
16301;DHT22;8258;51.020;4.248;2022-07-05T12:03:54;27.30;96.30
16301;DHT22;8258;51.020;4.248;2022-07-05T12:06:22;26.90;95.90
16301;DHT22;8258;51.020;4.248;2022-07-05T12:09:02;25.80;96.70
16301;DHT22;8258;51.020;4.248;2022-07-05T12:11:29;25.20;97.80
16301;DHT22;8258;51.020;4.248;2022-07-05T12:14:21;25.30;97.40
16301;DHT22;8258;51.020;4.248;2022-07-05T12:16:49;25.70;98.00
16301;DHT22;8258;51.020;4.248;2022-07-05T12:19:26;26.00;97.30
16301;DHT22;8258;51.020;4.248;2022-07-05T12:21:53;26.10;96.60
16301;DHT22;8258;51.020;4.248;2022-07-05T12:24:21;26.60;96.80
16301;DHT22;8258;51.020;4.248;2022-07-05T12:26:50;28.40;94.40
16301;DHT22;8258;51.020;4.248;2022-07-05T12:29:17;30.10;91.40
16301;DHT22;8258;51.020;4.248;2022-07-05T12:32:03;31.00;90.30
16301;DHT22;8258;51.020;4.248;2022-07-05T12:34:34;32.10;88.00
16301;DHT22;8258;51.020;4.248;2022-07-05T12:37:01;31.70;88.00
16301;DHT22;8258;51.020;4.248;2022-07-05T12:39:28;30.20;88.60
16301;DHT22;8258;51.020;4.248;2022-07-05T12:41:55;29.70;90.40
16301;DHT22;8258;51.020;4.248;2022-07-05T12:44:22;29.70;89.00
16301;DHT22;8258;51.020;4.248;2022-07-05T12:46:49;29.80;89.10
16301;DHT22;8258;51.020;4.248;2022-07-05T12:49:18;28.90;90.20
16301;DHT22;8258;51.020;4.248;2022-07-05T12:51:45;28.00;91.30
16301;DHT22;8258;51.020;4.248;2022-07-05T12:54:20;26.60;92.70
16301;DHT22;8258;51.020;4.248;2022-07-05T12:57:05;26.90;92.50
16301;DHT22;8258;51.020;4.248;2022-07-05T12:59:57;26.90;92.30
16301;DHT22;8258;51.020;4.248;2022-07-05T13:02:34;27.00;92.40
16301;DHT22;8258;51.020;4.248;2022-07-05T13:05:05;26.50;92.90
16301;DHT22;8258;51.020;4.248;2022-07-05T13:07:33;26.80;92.90
16301;DHT22;8258;51.020;4.248;2022-07-05T13:10:14;28.20;91.40
16301;DHT22;8258;51.020;4.248;2022-07-05T13:12:42;28.70;90.50
16301;DHT22;8258;51.020;4.248;2022-07-05T13:15:09;28.60;90.20
16301;DHT22;8258;51.020;4.248;2022-07-05T13:17:36;27.50;90.90
16301;DHT22;8258;51.020;4.248;2022-07-05T13:20:05;26.50;91.80
16301;DHT22;8258;51.020;4.248;2022-07-05T13:22:32;26.00;92.80
16301;DHT22;8258;51.020;4.248;2022-07-05T13:24:59;26.20;93.00
16301;DHT22;8258;51.020;4.248;2022-07-05T13:27:26;27.70;92.30
16301;DHT22;8258;51.020;4.248;2022-07-05T13:29:53;28.50;90.60
16301;DHT22;8258;51.020;4.248;2022-07-05T13:32:20;29.30;90.00
16301;DHT22;8258;51.020;4.248;2022-07-05T13:34:48;28.70;88.20
16301;DHT22;8258;51.020;4.248;2022-07-05T13:37:17;28.40;90.80
16301;DHT22;8258;51.020;4.248;2022-07-05T13:39:44;27.60;90.70
16301;DHT22;8258;51.020;4.248;2022-07-05T13:42:11;27.30;91.70
16301;DHT22;8258;51.020;4.248;2022-07-05T13:44:38;26.90;92.10
16301;DHT22;8258;51.020;4.248;2022-07-05T13:47:05;27.10;92.00
16301;DHT22;8258;51.020;4.248;2022-07-05T13:49:32;27.90;90.90
16301;DHT22;8258;51.020;4.248;2022-07-05T13:51:59;27.80;90.40
16301;DHT22;8258;51.020;4.248;2022-07-05T13:54:29;27.50;91.40
16301;DHT22;8258;51.020;4.248;2022-07-05T13:56:56;28.50;89.90
16301;DHT22;8258;51.020;4.248;2022-07-05T13:59:23;28.40;88.60
16301;DHT22;8258;51.020;4.248;2022-07-05T14:01:50;27.80;90.60
16301;DHT22;8258;51.020;4.248;2022-07-05T14:04:17;28.70;89.30
16301;DHT22;8258;51.020;4.248;2022-07-05T14:06:43;28.80;87.60
16301;DHT22;8258;51.020;4.248;2022-07-05T14:09:11;29.00;88.00
16301;DHT22;8258;51.020;4.248;2022-07-05T14:11:40;29.70;86.30
16301;DHT22;8258;51.020;4.248;2022-07-05T14:14:06;29.10;85.70
16301;DHT22;8258;51.020;4.248;2022-07-05T14:16:35;27.70;90.00
16301;DHT22;8258;51.020;4.248;2022-07-05T14:19:02;27.80;90.50
16301;DHT22;8258;51.020;4.248;2022-07-05T14:21:29;28.90;88.80
16301;DHT22;8258;51.020;4.248;2022-07-05T14:23:56;29.70;88.10
16301;DHT22;8258;51.020;4.248;2022-07-05T14:26:23;29.30;84.70
16301;DHT22;8258;51.020;4.248;2022-07-05T14:28:54;28.40;85.80
16301;DHT22;8258;51.020;4.248;2022-07-05T14:31:21;29.30;85.80
16301;DHT22;8258;51.020;4.248;2022-07-05T14:33:49;29.30;86.10
16301;DHT22;8258;51.020;4.248;2022-07-05T14:36:15;27.40;87.80
16301;DHT22;8258;51.020;4.248;2022-07-05T14:38:45;26.40;90.70
16301;DHT22;8258;51.020;4.248;2022-07-05T14:41:11;26.70;89.10
16301;DHT22;8258;51.020;4.248;2022-07-05T14:43:38;25.40;90.30
16301;DHT22;8258;51.020;4.248;2022-07-05T14:46:07;24.60;92.50
16301;DHT22;8258;51.020;4.248;2022-07-05T14:48:37;24.20;92.70
16301;DHT22;8258;51.020;4.248;2022-07-05T14:51:04;24.90;92.10
16301;DHT22;8258;51.020;4.248;2022-07-05T14:53:31;25.80;91.60
16301;DHT22;8258;51.020;4.248;2022-07-05T14:55:58;24.60;90.80
16301;DHT22;8258;51.020;4.248;2022-07-05T14:58:25;24.10;92.70
16301;DHT22;8258;51.020;4.248;2022-07-05T15:00:56;25.60;91.30
16301;DHT22;8258;51.020;4.248;2022-07-05T15:03:24;26.90;87.80
16301;DHT22;8258;51.020;4.248;2022-07-05T15:05:51;27.10;85.90
16301;DHT22;8258;51.020;4.248;2022-07-05T15:08:18;27.80;85.00
16301;DHT22;8258;51.020;4.248;2022-07-05T15:10:46;27.90;84.00
16301;DHT22;8258;51.020;4.248;2022-07-05T15:13:13;28.40;85.10
16301;DHT22;8258;51.020;4.248;2022-07-05T15:15:40;29.00;85.20
16301;DHT22;8258;51.020;4.248;2022-07-05T15:18:07;29.30;83.50
16301;DHT22;8258;51.020;4.248;2022-07-05T15:20:35;28.70;81.90
16301;DHT22;8258;51.020;4.248;2022-07-05T15:23:02;28.60;84.10
16301;DHT22;8258;51.020;4.248;2022-07-05T15:25:29;29.10;82.60
16301;DHT22;8258;51.020;4.248;2022-07-05T15:27:56;29.20;81.40
16301;DHT22;8258;51.020;4.248;2022-07-05T15:30:23;29.50;78.70
16301;DHT22;8258;51.020;4.248;2022-07-05T15:32:50;29.20;78.00
16301;DHT22;8258;51.020;4.248;2022-07-05T15:35:17;29.50;78.30
16301;DHT22;8258;51.020;4.248;2022-07-05T15:37:45;29.60;77.10
16301;DHT22;8258;51.020;4.248;2022-07-05T15:40:12;28.10;77.80
16301;DHT22;8258;51.020;4.248;2022-07-05T15:42:39;28.20;80.00
16301;DHT22;8258;51.020;4.248;2022-07-05T15:45:08;28.40;80.10
16301;DHT22;8258;51.020;4.248;2022-07-05T15:47:35;28.60;77.80
16301;DHT22;8258;51.020;4.248;2022-07-05T15:50:04;27.50;77.70
16301;DHT22;8258;51.020;4.248;2022-07-05T15:52:31;26.90;80.90
16301;DHT22;8258;51.020;4.248;2022-07-05T15:54:59;27.70;79.10